sensor_id;sensor_type;location;lat;lon;timestamp;P1;durP1;ratioP1;P2;durP2;ratioP2
72132;SDS011;60008;50.826;6.896;2022-07-12T00:01:55;8.35;;;5.53;;
72132;SDS011;60008;50.826;6.896;2022-07-12T00:04:22;11.43;;;6.03;;
72132;SDS011;60008;50.826;6.896;2022-07-12T00:06:49;9.87;;;5.83;;
72132;SDS011;60008;50.826;6.896;2022-07-12T00:09:15;11.15;;;5.50;;
72132;SDS011;60008;50.826;6.896;2022-07-12T00:11:42;9.50;;;6.07;;
72132;SDS011;60008;50.826;6.896;2022-07-12T00:14:09;8.23;;;5.03;;
72132;SDS011;60008;50.826;6.896;2022-07-12T00:16:38;11.60;;;6.28;;
72132;SDS011;60008;50.826;6.896;2022-07-12T00:19:05;10.17;;;5.47;;
72132;SDS011;60008;50.826;6.896;2022-07-12T00:21:32;8.90;;;5.65;;
72132;SDS011;60008;50.826;6.896;2022-07-12T00:23:59;10.75;;;5.50;;
72132;SDS011;60008;50.826;6.896;2022-07-12T00:26:25;10.00;;;5.55;;
72132;SDS011;60008;50.826;6.896;2022-07-12T00:28:52;9.30;;;5.78;;
72132;SDS011;60008;50.826;6.896;2022-07-12T00:31:18;8.87;;;5.67;;
72132;SDS011;60008;50.826;6.896;2022-07-12T00:33:46;8.90;;;5.65;;
72132;SDS011;60008;50.826;6.896;2022-07-12T00:36:13;20.23;;;6.03;;
72132;SDS011;60008;50.826;6.896;2022-07-12T00:38:41;9.57;;;6.00;;
72132;SDS011;60008;50.826;6.896;2022-07-12T00:41:07;9.95;;;5.70;;
72132;SDS011;60008;50.826;6.896;2022-07-12T00:43:34;8.90;;;5.33;;
72132;SDS011;60008;50.826;6.896;2022-07-12T00:46:00;9.00;;;6.03;;
72132;SDS011;60008;50.826;6.896;2022-07-12T00:48:27;9.43;;;5.68;;
72132;SDS011;60008;50.826;6.896;2022-07-12T00:50:53;11.77;;;5.68;;
72132;SDS011;60008;50.826;6.896;2022-07-12T00:53:20;10.73;;;6.18;;
72132;SDS011;60008;50.826;6.896;2022-07-12T00:55:58;8.63;;;5.77;;
72132;SDS011;60008;50.826;6.896;2022-07-12T00:58:25;9.93;;;5.57;;
72132;SDS011;60008;50.826;6.896;2022-07-12T01:00:55;8.70;;;5.63;;
72132;SDS011;60008;50.826;6.896;2022-07-12T01:03:23;8.30;;;5.47;;
72132;SDS011;60008;50.826;6.896;2022-07-12T01:05:50;8.82;;;5.18;;
72132;SDS011;60008;50.826;6.896;2022-07-12T01:08:17;9.00;;;5.60;;
72132;SDS011;60008;50.826;6.896;2022-07-12T01:10:44;8.88;;;5.50;;
72132;SDS011;60008;50.826;6.896;2022-07-12T01:13:11;8.77;;;5.30;;
72132;SDS011;60008;50.826;6.896;2022-07-12T01:15:38;8.10;;;5.28;;
72132;SDS011;60008;50.826;6.896;2022-07-12T01:18:06;8.55;;;5.60;;
72132;SDS011;60008;50.826;6.896;2022-07-12T01:20:33;8.03;;;5.00;;
72132;SDS011;60008;50.826;6.896;2022-07-12T01:23:00;8.77;;;5.95;;
72132;SDS011;60008;50.826;6.896;2022-07-12T01:25:28;10.23;;;6.03;;
72132;SDS011;60008;50.826;6.896;2022-07-12T01:27:55;8.80;;;5.70;;
72132;SDS011;60008;50.826;6.896;2022-07-12T01:30:21;11.15;;;5.60;;
72132;SDS011;60008;50.826;6.896;2022-07-12T01:32:48;8.30;;;5.63;;
72132;SDS011;60008;50.826;6.896;2022-07-12T01:35:17;8.65;;;5.50;;
72132;SDS011;60008;50.826;6.896;2022-07-12T01:37:44;9.80;;;5.50;;
72132;SDS011;60008;50.826;6.896;2022-07-12T01:40:12;9.23;;;5.82;;
72132;SDS011;60008;50.826;6.896;2022-07-12T01:42:40;10.25;;;5.65;;
72132;SDS011;60008;50.826;6.896;2022-07-12T01:45:07;8.53;;;5.33;;
72132;SDS011;60008;50.826;6.896;2022-07-12T01:47:34;9.93;;;5.82;;
72132;SDS011;60008;50.826;6.896;2022-07-12T01:50:06;9.30;;;5.57;;
72132;SDS011;60008;50.826;6.896;2022-07-12T01:52:35;7.85;;;5.30;;
72132;SDS011;60008;50.826;6.896;2022-07-12T01:55:02;9.55;;;5.38;;
72132;SDS011;60008;50.826;6.896;2022-07-12T01:57:29;8.07;;;5.50;;
72132;SDS011;60008;50.826;6.896;2022-07-12T01:59:59;8.68;;;5.55;;
72132;SDS011;60008;50.826;6.896;2022-07-12T02:02:26;10.68;;;5.80;;
72132;SDS011;60008;50.826;6.896;2022-07-12T02:04:54;8.48;;;5.50;;
72132;SDS011;60008;50.826;6.896;2022-07-12T02:07:22;10.07;;;5.78;;
72132;SDS011;60008;50.826;6.896;2022-07-12T02:09:50;10.33;;;5.63;;
72132;SDS011;60008;50.826;6.896;2022-07-12T02:12:16;9.32;;;5.47;;
72132;SDS011;60008;50.826;6.896;2022-07-12T02:14:43;9.45;;;5.90;;
72132;SDS011;60008;50.826;6.896;2022-07-12T02:17:09;11.07;;;5.57;;
72132;SDS011;60008;50.826;6.896;2022-07-12T02:19:36;8.63;;;5.70;;
72132;SDS011;60008;50.826;6.896;2022-07-12T02:22:03;8.80;;;5.87;;
72132;SDS011;60008;50.826;6.896;2022-07-12T02:24:29;10.15;;;6.18;;
72132;SDS011;60008;50.826;6.896;2022-07-12T02:26:56;10.13;;;6.38;;
72132;SDS011;60008;50.826;6.896;2022-07-12T02:29:23;10.70;;;5.72;;
72132;SDS011;60008;50.826;6.896;2022-07-12T02:31:49;9.57;;;6.15;;
72132;SDS011;60008;50.826;6.896;2022-07-12T02:34:16;9.30;;;5.47;;
72132;SDS011;60008;50.826;6.896;2022-07-12T02:36:43;8.88;;;5.90;;
72132;SDS011;60008;50.826;6.896;2022-07-12T02:39:10;7.82;;;5.68;;
72132;SDS011;60008;50.826;6.896;2022-07-12T02:41:37;9.40;;;5.85;;
72132;SDS011;60008;50.826;6.896;2022-07-12T02:44:04;9.73;;;6.03;;
72132;SDS011;60008;50.826;6.896;2022-07-12T02:46:30;12.87;;;5.33;;
72132;SDS011;60008;50.826;6.896;2022-07-12T02:48:57;8.98;;;5.32;;
72132;SDS011;60008;50.826;6.896;2022-07-12T02:51:24;9.05;;;5.80;;
72132;SDS011;60008;50.826;6.896;2022-07-12T02:53:51;9.95;;;5.95;;
72132;SDS011;60008;50.826;6.896;2022-07-12T02:56:17;8.45;;;5.57;;
72132;SDS011;60008;50.826;6.896;2022-07-12T02:58:44;9.50;;;5.60;;
72132;SDS011;60008;50.826;6.896;2022-07-12T03:01:10;8.48;;;5.40;;
72132;SDS011;60008;50.826;6.896;2022-07-12T03:03:37;8.27;;;5.32;;
72132;SDS011;60008;50.826;6.896;2022-07-12T03:06:04;9.65;;;5.63;;
72132;SDS011;60008;50.826;6.896;2022-07-12T03:08:31;10.63;;;6.53;;
72132;SDS011;60008;50.826;6.896;2022-07-12T03:10:57;10.77;;;6.17;;
72132;SDS011;60008;50.826;6.896;2022-07-12T03:13:24;10.38;;;5.97;;
72132;SDS011;60008;50.826;6.896;2022-07-12T03:15:51;10.85;;;6.25;;
72132;SDS011;60008;50.826;6.896;2022-07-12T03:18:18;10.30;;;6.40;;
72132;SDS011;60008;50.826;6.896;2022-07-12T03:20:44;10.68;;;6.30;;
72132;SDS011;60008;50.826;6.896;2022-07-12T03:23:11;8.90;;;6.00;;
72132;SDS011;60008;50.826;6.896;2022-07-12T03:25:38;9.98;;;6.32;;
72132;SDS011;60008;50.826;6.896;2022-07-12T03:28:04;10.35;;;6.22;;
72132;SDS011;60008;50.826;6.896;2022-07-12T03:30:31;10.23;;;6.30;;
72132;SDS011;60008;50.826;6.896;2022-07-12T03:32:57;10.57;;;6.45;;
72132;SDS011;60008;50.826;6.896;2022-07-12T03:35:24;10.73;;;6.27;;
72132;SDS011;60008;50.826;6.896;2022-07-12T03:38:12;9.43;;;6.10;;
72132;SDS011;60008;50.826;6.896;2022-07-12T03:40:38;9.07;;;5.75;;
72132;SDS011;60008;50.826;6.896;2022-07-12T03:43:05;8.95;;;5.88;;
72132;SDS011;60008;50.826;6.896;2022-07-12T03:45:31;10.68;;;5.90;;
72132;SDS011;60008;50.826;6.896;2022-07-12T03:47:58;10.17;;;5.93;;
72132;SDS011;60008;50.826;6.896;2022-07-12T03:50:24;8.75;;;5.53;;
72132;SDS011;60008;50.826;6.896;2022-07-12T03:52:51;9.02;;;5.82;;
72132;SDS011;60008;50.826;6.896;2022-07-12T03:55:18;16.40;;;6.30;;
72132;SDS011;60008;50.826;6.896;2022-07-12T03:57:44;12.15;;;5.97;;
72132;SDS011;60008;50.826;6.896;2022-07-12T04:00:11;9.80;;;5.90;;
72132;SDS011;60008;50.826;6.896;2022-07-12T04:02:39;11.98;;;6.32;;
72132;SDS011;60008;50.826;6.896;2022-07-12T04:05:07;11.00;;;6.10;;
72132;SDS011;60008;50.826;6.896;2022-07-12T04:07:36;11.35;;;5.70;;
72132;SDS011;60008;50.826;6.896;2022-07-12T04:10:03;9.82;;;5.70;;
72132;SDS011;60008;50.826;6.896;2022-07-12T04:12:31;9.67;;;5.67;;
72132;SDS011;60008;50.826;6.896;2022-07-12T04:14:57;9.93;;;6.28;;
72132;SDS011;60008;50.826;6.896;2022-07-12T04:17:24;9.25;;;6.35;;
72132;SDS011;60008;50.826;6.896;2022-07-12T04:19:51;10.13;;;5.97;;
72132;SDS011;60008;50.826;6.896;2022-07-12T04:22:17;10.98;;;7.00;;
72132;SDS011;60008;50.826;6.896;2022-07-12T04:24:44;8.80;;;5.67;;
72132;SDS011;60008;50.826;6.896;2022-07-12T04:27:10;12.30;;;6.53;;
72132;SDS011;60008;50.826;6.896;2022-07-12T04:29:37;9.63;;;5.93;;
72132;SDS011;60008;50.826;6.896;2022-07-12T04:32:04;11.50;;;6.40;;
72132;SDS011;60008;50.826;6.896;2022-07-12T04:34:30;9.80;;;5.78;;
72132;SDS011;60008;50.826;6.896;2022-07-12T04:36:57;12.40;;;6.53;;
72132;SDS011;60008;50.826;6.896;2022-07-12T04:39:24;10.55;;;6.28;;
72132;SDS011;60008;50.826;6.896;2022-07-12T04:41:50;8.80;;;5.93;;
72132;SDS011;60008;50.826;6.896;2022-07-12T04:44:17;9.98;;;6.53;;
72132;SDS011;60008;50.826;6.896;2022-07-12T04:46:43;10.50;;;6.63;;
72132;SDS011;60008;50.826;6.896;2022-07-12T04:49:10;9.67;;;6.03;;
72132;SDS011;60008;50.826;6.896;2022-07-12T04:51:36;11.38;;;5.78;;
72132;SDS011;60008;50.826;6.896;2022-07-12T04:54:03;12.18;;;6.78;;
72132;SDS011;60008;50.826;6.896;2022-07-12T04:56:29;12.30;;;7.07;;
72132;SDS011;60008;50.826;6.896;2022-07-12T04:58:56;10.48;;;6.57;;
72132;SDS011;60008;50.826;6.896;2022-07-12T05:01:26;11.80;;;6.87;;
72132;SDS011;60008;50.826;6.896;2022-07-12T05:03:54;11.07;;;6.82;;
72132;SDS011;60008;50.826;6.896;2022-07-12T05:06:21;12.32;;;7.38;;
72132;SDS011;60008;50.826;6.896;2022-07-12T05:08:49;11.85;;;7.30;;
72132;SDS011;60008;50.826;6.896;2022-07-12T05:11:16;13.48;;;7.15;;
72132;SDS011;60008;50.826;6.896;2022-07-12T05:13:42;14.00;;;7.60;;
72132;SDS011;60008;50.826;6.896;2022-07-12T05:16:09;14.15;;;7.63;;
72132;SDS011;60008;50.826;6.896;2022-07-12T05:18:36;12.85;;;7.70;;
72132;SDS011;60008;50.826;6.896;2022-07-12T05:21:03;12.23;;;7.18;;
72132;SDS011;60008;50.826;6.896;2022-07-12T05:23:30;12.07;;;7.60;;
72132;SDS011;60008;50.826;6.896;2022-07-12T05:25:57;14.87;;;7.77;;
72132;SDS011;60008;50.826;6.896;2022-07-12T05:28:23;14.25;;;8.30;;
72132;SDS011;60008;50.826;6.896;2022-07-12T05:30:50;13.35;;;7.40;;
72132;SDS011;60008;50.826;6.896;2022-07-12T05:33:16;14.95;;;8.02;;
72132;SDS011;60008;50.826;6.896;2022-07-12T05:35:43;13.25;;;7.93;;
72132;SDS011;60008;50.826;6.896;2022-07-12T05:38:09;13.50;;;8.07;;
72132;SDS011;60008;50.826;6.896;2022-07-12T05:40:36;12.38;;;7.75;;
72132;SDS011;60008;50.826;6.896;2022-07-12T05:43:02;14.38;;;8.15;;
72132;SDS011;60008;50.826;6.896;2022-07-12T05:45:30;15.45;;;9.10;;
72132;SDS011;60008;50.826;6.896;2022-07-12T05:47:56;16.55;;;8.45;;
72132;SDS011;60008;50.826;6.896;2022-07-12T05:50:23;15.00;;;8.10;;
72132;SDS011;60008;50.826;6.896;2022-07-12T05:52:50;14.82;;;7.97;;
72132;SDS011;60008;50.826;6.896;2022-07-12T05:55:35;15.00;;;8.18;;
72132;SDS011;60008;50.826;6.896;2022-07-12T05:58:01;13.35;;;8.38;;
72132;SDS011;60008;50.826;6.896;2022-07-12T06:00:29;13.30;;;8.20;;
72132;SDS011;60008;50.826;6.896;2022-07-12T06:02:56;13.77;;;8.43;;
72132;SDS011;60008;50.826;6.896;2022-07-12T06:05:24;16.40;;;8.18;;
72132;SDS011;60008;50.826;6.896;2022-07-12T06:07:50;13.73;;;8.20;;
72132;SDS011;60008;50.826;6.896;2022-07-12T06:10:17;14.63;;;8.48;;
72132;SDS011;60008;50.826;6.896;2022-07-12T06:12:43;14.35;;;8.50;;
72132;SDS011;60008;50.826;6.896;2022-07-12T06:15:10;15.47;;;8.77;;
72132;SDS011;60008;50.826;6.896;2022-07-12T06:17:37;15.23;;;9.40;;
72132;SDS011;60008;50.826;6.896;2022-07-12T06:20:04;15.05;;;9.20;;
72132;SDS011;60008;50.826;6.896;2022-07-12T06:22:31;17.52;;;9.80;;
72132;SDS011;60008;50.826;6.896;2022-07-12T06:24:58;16.35;;;9.98;;
72132;SDS011;60008;50.826;6.896;2022-07-12T06:27:27;16.60;;;10.23;;
72132;SDS011;60008;50.826;6.896;2022-07-12T06:29:53;18.77;;;9.88;;
72132;SDS011;60008;50.826;6.896;2022-07-12T06:32:20;20.48;;;10.45;;
72132;SDS011;60008;50.826;6.896;2022-07-12T06:34:46;19.85;;;11.15;;
72132;SDS011;60008;50.826;6.896;2022-07-12T06:37:13;18.27;;;10.93;;
72132;SDS011;60008;50.826;6.896;2022-07-12T06:39:41;20.47;;;10.07;;
72132;SDS011;60008;50.826;6.896;2022-07-12T06:42:07;18.88;;;10.95;;
72132;SDS011;60008;50.826;6.896;2022-07-12T06:44:34;18.90;;;11.40;;
72132;SDS011;60008;50.826;6.896;2022-07-12T06:47:01;18.20;;;10.75;;
72132;SDS011;60008;50.826;6.896;2022-07-12T06:49:28;21.52;;;11.95;;
72132;SDS011;60008;50.826;6.896;2022-07-12T06:51:55;18.20;;;10.67;;
72132;SDS011;60008;50.826;6.896;2022-07-12T06:54:21;18.95;;;10.18;;
72132;SDS011;60008;50.826;6.896;2022-07-12T06:56:48;17.73;;;10.05;;
72132;SDS011;60008;50.826;6.896;2022-07-12T06:59:14;16.90;;;10.07;;
72132;SDS011;60008;50.826;6.896;2022-07-12T07:01:45;16.55;;;10.00;;
72132;SDS011;60008;50.826;6.896;2022-07-12T07:04:12;19.03;;;9.33;;
72132;SDS011;60008;50.826;6.896;2022-07-12T07:06:38;21.52;;;10.75;;
72132;SDS011;60008;50.826;6.896;2022-07-12T07:09:05;18.77;;;9.95;;
72132;SDS011;60008;50.826;6.896;2022-07-12T07:11:34;18.40;;;10.23;;
